Time;durP1;ratioP1;P1;durP2;ratioP2;P2;SDS_P1;SDS_P2;PMS_P1;PMS_P2;Temp;Humidity;BMP_temperature;BMP_pressure;BME280_temperature;BME280_humidity;BME280_pressure;Samples;Min_cycle;Max_cycle;Signal;HPM_P1;HPM_P2
2023/06/29 00:02:12;;;;;;;6.30;3.58;;;23.00;67.40;;;;;;4974834;28;20046;-57
2023/06/29 00:04:37;;;;;;;7.28;3.47;;;23.00;67.40;;;;;;4973163;28;20034;-59
2023/06/29 00:07:03;;;;;;;5.60;3.30;;;23.00;67.40;;;;;;4972436;28;20043;-56
2023/06/29 00:09:29;;;;;;;6.78;3.00;;;22.90;67.30;;;;;;4973460;28;20050;-56
2023/06/29 00:11:54;;;;;;;7.13;3.67;;;23.00;67.40;;;;;;4971774;28;20061;-56
2023/06/29 00:14:20;;;;;;;5.70;3.22;;;23.00;67.40;;;;;;4972535;28;20501;-55
2023/06/29 00:16:50;;;;;;;5.68;3.33;;;22.90;67.30;;;;;;4972983;28;20083;-55
2023/06/29 00:19:16;;;;;;;7.20;3.40;;;22.90;67.30;;;;;;4973133;28;20483;-56
2023/06/29 00:21:42;;;;;;;7.75;3.58;;;22.90;67.20;;;;;;4972259;28;20090;-56
2023/06/29 00:24:11;;;;;;;6.63;3.47;;;22.90;67.20;;;;;;4971455;28;20133;-55
2023/06/29 00:26:38;;;;;;;6.28;3.28;;;22.90;67.20;;;;;;4972323;28;20154;-55
2023/06/29 00:29:04;;;;;;;5.55;3.30;;;22.90;67.20;;;;;;4971219;28;20047;-55
2023/06/29 00:31:29;;;;;;;7.20;3.33;;;22.90;67.10;;;;;;4972963;28;20049;-55
2023/06/29 00:33:55;;;;;;;6.50;4.03;;;22.90;67.10;;;;;;4971780;28;20174;-55
2023/06/29 00:36:21;;;;;;;4.95;3.17;;;22.90;67.10;;;;;;4972357;28;20047;-56
2023/06/29 00:38:46;;;;;;;7.43;3.70;;;22.90;67.10;;;;;;4972440;28;20518;-56
2023/06/29 00:41:12;;;;;;;5.78;3.28;;;22.80;67.00;;;;;;4983656;28;20038;-56
2023/06/29 00:43:38;;;;;;;5.97;3.28;;;22.80;67.00;;;;;;4972762;28;20097;-56
2023/06/29 00:46:07;;;;;;;5.32;3.28;;;22.80;66.90;;;;;;4972707;28;20095;-56
2023/06/29 00:48:35;;;;;;;6.45;3.22;;;22.80;66.90;;;;;;4985940;28;20044;-56
2023/06/29 00:51:01;;;;;;;6.88;3.20;;;22.80;66.90;;;;;;4991618;28;20042;-55
2023/06/29 00:53:27;;;;;;;5.60;3.67;;;22.80;66.90;;;;;;4990170;28;20038;-55
2023/06/29 00:55:53;;;;;;;5.32;3.20;;;22.80;66.80;;;;;;4989526;28;20046;-56
2023/06/29 00:58:18;;;;;;;4.55;3.03;;;22.80;66.90;;;;;;4990403;28;20086;-56
2023/06/29 01:00:44;;;;;;;5.65;3.22;;;22.80;66.80;;;;;;4992080;28;20076;-55
2023/06/29 01:03:11;;;;;;;5.30;2.88;;;22.80;66.80;;;;;;4990394;28;20039;-56
2023/06/29 01:05:36;;;;;;;4.35;3.30;;;22.80;66.80;;;;;;4992492;28;20097;-56
2023/06/29 01:08:33;;;;;;;5.50;3.20;;;22.80;66.80;;;;;;4994990;28;20533;-56
2023/06/29 01:10:58;;;;;;;5.10;3.08;;;22.80;66.80;;;;;;4992551;28;20054;-56
2023/06/29 01:13:24;;;;;;;6.60;3.00;;;22.80;66.80;;;;;;4995327;28;20414;-56
2023/06/29 01:15:49;;;;;;;4.07;3.15;;;22.80;66.80;;;;;;4977085;28;20046;-55
2023/06/29 01:18:16;;;;;;;4.45;2.75;;;22.80;66.70;;;;;;4993959;28;20105;-56
2023/06/29 01:20:42;;;;;;;5.22;3.30;;;22.80;66.80;;;;;;4978355;28;20050;-56
2023/06/29 01:23:10;;;;;;;4.65;3.03;;;22.80;66.80;;;;;;4992887;28;20061;-56
2023/06/29 01:25:36;;;;;;;4.80;2.95;;;22.80;66.70;;;;;;4994100;28;20049;-55
2023/06/29 01:28:08;;;;;;;5.75;3.13;;;22.80;66.70;;;;;;4994860;28;20046;-56
2023/06/29 01:30:48;;;;;;;6.55;3.30;;;22.80;67.30;;;;;;4994287;28;20371;-56
2023/06/29 01:33:17;;;;;;;5.60;3.08;;;22.80;66.70;;;;;;4994658;28;20542;-56
2023/06/29 01:35:43;;;;;;;6.40;3.40;;;22.80;66.70;;;;;;4994681;28;20051;-56
2023/06/29 01:38:19;;;;;;;5.53;3.20;;;22.70;66.60;;;;;;4993421;28;20074;-56
2023/06/29 01:40:46;;;;;;;4.82;3.17;;;22.80;66.60;;;;;;4978244;28;20398;-56
2023/06/29 01:43:12;;;;;;;4.80;2.92;;;22.70;66.50;;;;;;4994372;28;20491;-56
2023/06/29 01:45:37;;;;;;;5.68;3.17;;;22.70;66.50;;;;;;4976722;28;20137;-56
2023/06/29 01:48:04;;;;;;;5.20;2.97;;;22.70;66.50;;;;;;4994419;28;20082;-56
2023/06/29 01:50:29;;;;;;;4.18;2.92;;;22.70;66.50;;;;;;4977878;28;20034;-56
2023/06/29 01:52:55;;;;;;;4.35;2.72;;;22.70;66.50;;;;;;4993423;28;20502;-56
2023/06/29 01:55:21;;;;;;;5.85;3.28;;;22.70;66.50;;;;;;4993381;28;20137;-55
2023/06/29 01:57:47;;;;;;;4.55;2.80;;;22.70;66.50;;;;;;4994558;28;20486;-56
2023/06/29 02:00:13;;;;;;;4.22;2.80;;;22.70;66.50;;;;;;4993370;28;20043;-56
2023/06/29 02:02:39;;;;;;;4.20;3.00;;;22.70;66.50;;;;;;4976652;28;20113;-56
2023/06/29 02:05:05;;;;;;;4.82;2.88;;;22.70;66.40;;;;;;4973612;28;20387;-56
2023/06/29 02:07:30;;;;;;;5.28;2.83;;;22.70;66.40;;;;;;4975046;28;20112;-56
2023/06/29 02:09:56;;;;;;;6.20;2.88;;;22.70;66.40;;;;;;4974725;28;20540;-57
2023/06/29 02:12:21;;;;;;;5.70;3.45;;;22.70;66.40;;;;;;4972695;28;20047;-56
2023/06/29 02:14:47;;;;;;;4.93;2.95;;;22.70;66.40;;;;;;4974922;28;20566;-56
2023/06/29 02:17:12;;;;;;;4.78;2.90;;;22.70;66.40;;;;;;4975011;28;20034;-56
2023/06/29 02:19:38;;;;;;;4.78;2.72;;;22.70;66.30;;;;;;4973881;28;20134;-56
2023/06/29 02:22:04;;;;;;;5.78;3.25;;;22.70;66.30;;;;;;4974717;28;20047;-56
2023/06/29 02:24:29;;;;;;;4.65;2.88;;;22.70;66.30;;;;;;4974759;28;20043;-55
2023/06/29 02:26:55;;;;;;;6.25;3.47;;;22.70;66.30;;;;;;4973448;28;20042;-56
2023/06/29 02:29:21;;;;;;;4.90;2.80;;;22.70;66.30;;;;;;4974893;28;20497;-56
2023/06/29 02:31:47;;;;;;;5.43;2.83;;;22.70;66.30;;;;;;4974233;28;20047;-56
2023/06/29 02:34:12;;;;;;;4.55;3.00;;;22.70;66.20;;;;;;4974030;28;20046;-56
2023/06/29 02:36:39;;;;;;;4.63;2.90;;;22.60;66.20;;;;;;4974396;28;20058;-56
2023/06/29 02:39:04;;;;;;;4.50;2.80;;;22.60;66.20;;;;;;4973968;28;20058;-56
2023/06/29 02:41:30;;;;;;;5.80;3.10;;;22.60;66.20;;;;;;4973024;28;20039;-56
2023/06/29 02:43:56;;;;;;;4.68;3.47;;;22.60;66.20;;;;;;4973973;28;20065;-56
2023/06/29 02:46:21;;;;;;;4.55;2.83;;;22.60;66.20;;;;;;4974364;28;20054;-56
2023/06/29 02:48:47;;;;;;;4.07;2.65;;;22.60;66.10;;;;;;4987683;28;20499;-57
2023/06/29 02:51:12;;;;;;;4.82;2.70;;;22.60;66.10;;;;;;4993418;28;20541;-56
2023/06/29 02:53:38;;;;;;;4.28;2.30;;;22.60;66.10;;;;;;4993305;28;20054;-56
2023/06/29 02:56:04;;;;;;;3.92;2.45;;;22.60;66.10;;;;;;4992218;28;20486;-56
2023/06/29 02:58:29;;;;;;;5.43;2.80;;;22.60;66.10;;;;;;4992916;28;20418;-56
2023/06/29 03:00:55;;;;;;;3.97;2.80;;;22.60;66.10;;;;;;4993115;28;20134;-55
2023/06/29 03:03:20;;;;;;;3.95;2.85;;;22.60;66.10;;;;;;4992589;28;20035;-56
2023/06/29 03:05:46;;;;;;;4.38;2.63;;;22.60;66.00;;;;;;4993103;28;20542;-56
2023/06/29 03:08:12;;;;;;;5.22;2.78;;;22.60;66.10;;;;;;4993089;28;20057;-56
2023/06/29 03:10:37;;;;;;;4.13;2.80;;;22.60;66.10;;;;;;4992053;28;20061;-56
2023/06/29 03:13:03;;;;;;;3.67;2.53;;;22.60;66.10;;;;;;4992871;28;20054;-56
2023/06/29 03:15:28;;;;;;;4.22;3.03;;;22.60;66.10;;;;;;4992544;28;20050;-56
2023/06/29 03:17:54;;;;;;;4.82;2.75;;;22.60;66.00;;;;;;4993016;28;20184;-56
2023/06/29 03:20:20;;;;;;;4.55;2.90;;;22.60;66.00;;;;;;4992805;28;20053;-56
2023/06/29 03:22:45;;;;;;;4.43;2.58;;;22.60;66.00;;;;;;4992275;28;20550;-56
2023/06/29 03:25:11;;;;;;;3.80;2.50;;;22.60;66.00;;;;;;4992438;28;20042;-56
2023/06/29 03:27:37;;;;;;;5.80;2.80;;;22.60;66.00;;;;;;4992561;28;20528;-56
2023/06/29 03:30:03;;;;;;;3.80;2.70;;;22.60;65.90;;;;;;4991609;28;20050;-56
2023/06/29 03:32:28;;;;;;;4.07;2.58;;;22.60;65.90;;;;;;4993006;28;20054;-56
2023/06/29 03:34:54;;;;;;;5.72;2.92;;;22.60;65.90;;;;;;4992652;28;20140;-56
2023/06/29 03:37:19;;;;;;;5.45;2.85;;;22.60;66.00;;;;;;4991584;28;20059;-56
2023/06/29 03:39:45;;;;;;;4.30;2.75;;;22.60;65.90;;;;;;4992534;28;20097;-56
2023/06/29 03:42:11;;;;;;;5.00;3.00;;;22.60;65.90;;;;;;4990057;28;20453;-56
2023/06/29 03:44:39;;;;;;;4.57;2.65;;;22.60;65.90;;;;;;4991565;28;20427;-56
2023/06/29 03:47:05;;;;;;;4.70;2.88;;;22.60;65.90;;;;;;4992352;28;20045;-56
2023/06/29 03:49:30;;;;;;;4.25;2.75;;;22.60;65.90;;;;;;4987091;28;20038;-56
2023/06/29 03:51:56;;;;;;;3.78;2.40;;;22.60;65.90;;;;;;4972144;28;20057;-56
2023/06/29 03:54:22;;;;;;;5.25;2.85;;;22.60;65.90;;;;;;4973489;28;20466;-56
2023/06/29 03:56:47;;;;;;;4.18;2.90;;;22.60;65.90;;;;;;4972540;28;20042;-56
2023/06/29 03:59:13;;;;;;;4.10;2.70;;;22.60;65.90;;;;;;4972606;28;20035;-56
2023/06/29 04:01:38;;;;;;;5.15;2.80;;;22.60;65.90;;;;;;4976505;28;20039;-56
2023/06/29 04:04:04;;;;;;;3.95;2.75;;;22.50;65.80;;;;;;4976789;28;20173;-55
2023/06/29 04:06:30;;;;;;;5.38;2.90;;;22.60;65.80;;;;;;4971806;28;20065;-56
2023/06/29 04:08:55;;;;;;;4.22;3.00;;;22.50;65.80;;;;;;4972808;28;20126;-56
2023/06/29 04:11:21;;;;;;;4.15;2.47;;;22.60;65.80;;;;;;4972652;28;20046;-56
2023/06/29 04:13:46;;;;;;;4.80;2.95;;;22.60;65.80;;;;;;4972111;28;20051;-56
2023/06/29 04:16:12;;;;;;;4.53;3.05;;;22.50;65.80;;;;;;4973055;28;20039;-56
2023/06/29 04:18:38;;;;;;;3.97;2.80;;;22.60;65.80;;;;;;4973240;28;20042;-56
2023/06/29 04:21:04;;;;;;;4.97;2.50;;;22.50;65.80;;;;;;4972263;28;20444;-57
2023/06/29 04:23:29;;;;;;;4.03;2.70;;;22.60;65.80;;;;;;4973045;28;20078;-57
2023/06/29 04:25:55;;;;;;;4.60;3.10;;;22.60;65.80;;;;;;4971775;28;20054;-56
2023/06/29 04:28:20;;;;;;;4.43;2.80;;;22.50;65.70;;;;;;4972977;28;20047;-56
2023/06/29 04:30:46;;;;;;;5.75;3.03;;;22.60;65.80;;;;;;4973085;28;20371;-56
2023/06/29 04:33:14;;;;;;;3.65;2.72;;;22.60;65.80;;;;;;4972543;28;20069;-56
2023/06/29 04:35:41;;;;;;;3.92;2.88;;;22.50;65.70;;;;;;4987274;28;20043;-57
2023/06/29 04:38:08;;;;;;;4.47;2.72;;;22.50;65.70;;;;;;4981186;28;20067;-56
2023/06/29 04:40:34;;;;;;;4.70;3.22;;;22.50;65.70;;;;;;4991440;28;20042;-56
2023/06/29 04:42:59;;;;;;;3.70;2.60;;;22.50;65.70;;;;;;4995656;28;20045;-56
2023/06/29 04:45:25;;;;;;;5.00;2.88;;;22.50;65.70;;;;;;4995934;28;20050;-56
2023/06/29 04:47:51;;;;;;;4.65;3.00;;;22.50;65.70;;;;;;4994717;28;20042;-56
2023/06/29 04:50:24;;;;;;;4.07;2.97;;;22.50;65.60;;;;;;4995724;28;20084;-56
2023/06/29 04:52:53;;;;;;;4.20;3.13;;;22.50;65.60;;;;;;4995237;28;20064;-56
2023/06/29 04:55:19;;;;;;;4.35;2.95;;;22.50;65.70;;;;;;4979826;28;20047;-56
2023/06/29 04:57:44;;;;;;;4.63;2.63;;;22.50;65.70;;;;;;4976487;28;20050;-56
2023/06/29 05:00:11;;;;;;;3.95;2.90;;;22.50;65.70;;;;;;4976146;28;20043;-56
2023/06/29 05:02:37;;;;;;;3.95;2.72;;;22.50;65.60;;;;;;4974245;28;20422;-57
2023/06/29 05:05:06;;;;;;;4.40;2.55;;;22.50;65.60;;;;;;4975880;28;20046;-56
2023/06/29 05:07:32;;;;;;;4.43;2.95;;;22.50;65.70;;;;;;4975979;28;20047;-56
2023/06/29 05:09:58;;;;;;;4.32;2.72;;;22.50;65.70;;;;;;4978609;28;20088;-56
2023/06/29 05:12:25;;;;;;;4.22;3.03;;;22.50;65.60;;;;;;4995706;28;20042;-57
2023/06/29 05:14:50;;;;;;;5.05;2.55;;;22.50;65.70;;;;;;4995200;28;20038;-56
2023/06/29 05:17:17;;;;;;;4.68;2.80;;;22.50;65.70;;;;;;4995101;28;20092;-57
2023/06/29 05:19:43;;;;;;;4.90;2.90;;;22.50;65.70;;;;;;4995447;28;20042;-57
2023/06/29 05:22:08;;;;;;;3.80;2.65;;;22.50;65.70;;;;;;4994420;28;20125;-56
2023/06/29 05:24:34;;;;;;;4.78;3.00;;;22.50;65.70;;;;;;4993832;28;20054;-56
2023/06/29 05:27:00;;;;;;;4.72;2.90;;;22.50;65.70;;;;;;4994659;28;20042;-56
2023/06/29 05:29:25;;;;;;;4.85;3.20;;;22.50;65.70;;;;;;4993303;28;20046;-56
2023/06/29 05:31:51;;;;;;;5.00;2.85;;;22.50;65.70;;;;;;4994415;28;20502;-57
2023/06/29 05:34:16;;;;;;;4.03;2.75;;;22.50;65.70;;;;;;4995291;28;20487;-57
2023/06/29 05:36:42;;;;;;;4.57;2.97;;;22.50;65.60;;;;;;4993716;28;20057;-57
2023/06/29 05:39:08;;;;;;;5.13;3.08;;;22.50;65.60;;;;;;4994923;28;20104;-57
2023/06/29 05:41:33;;;;;;;6.07;3.10;;;22.50;65.70;;;;;;4994807;28;20042;-58
2023/06/29 05:43:59;;;;;;;4.18;2.88;;;22.50;65.70;;;;;;4993860;28;20089;-57
2023/06/29 05:46:25;;;;;;;4.97;3.10;;;22.50;65.60;;;;;;4994676;28;20146;-57
2023/06/29 05:48:51;;;;;;;5.55;2.70;;;22.50;65.70;;;;;;4986687;28;20554;-57
2023/06/29 05:51:16;;;;;;;4.80;3.00;;;22.50;65.70;;;;;;4974490;28;20043;-57
2023/06/29 05:53:42;;;;;;;6.65;3.03;;;22.60;65.80;;;;;;4974101;28;20053;-57
2023/06/29 05:56:07;;;;;;;6.32;3.08;;;22.60;65.70;;;;;;4974853;28;20406;-57
2023/06/29 05:58:33;;;;;;;6.60;3.00;;;22.60;65.70;;;;;;4974785;28;20105;-57
2023/06/29 06:00:58;;;;;;;5.57;3.33;;;22.60;65.70;;;;;;4975002;28;20042;-57
2023/06/29 06:03:24;;;;;;;6.93;3.40;;;22.60;65.70;;;;;;4975096;28;20501;-58
2023/06/29 06:05:50;;;;;;;8.32;3.53;;;22.60;65.90;;;;;;4973544;28;20043;-57
2023/06/29 06:08:15;;;;;;;7.35;3.30;;;22.60;65.90;;;;;;4975083;28;20039;-57
2023/06/29 06:10:41;;;;;;;5.47;3.00;;;22.60;65.80;;;;;;4974683;28;20046;-57
2023/06/29 06:13:06;;;;;;;6.70;3.03;;;22.60;65.80;;;;;;4973904;28;20042;-56
2023/06/29 06:15:33;;;;;;;6.65;3.03;;;22.60;65.80;;;;;;4975194;28;20058;-57
2023/06/29 06:17:59;;;;;;;5.30;3.40;;;22.70;65.80;;;;;;4974497;28;20185;-57
2023/06/29 06:20:24;;;;;;;6.55;3.20;;;22.70;65.80;;;;;;4974283;28;20122;-57
2023/06/29 06:22:50;;;;;;;8.13;3.42;;;22.60;65.70;;;;;;4974599;28;20049;-57
2023/06/29 06:25:17;;;;;;;10.68;3.83;;;22.70;65.80;;;;;;4974554;28;20073;-56
2023/06/29 06:27:43;;;;;;;8.82;3.55;;;22.70;65.80;;;;;;4974578;28;20475;-56
2023/06/29 06:30:09;;;;;;;9.52;3.85;;;22.70;65.80;;;;;;4974474;28;20046;-56
2023/06/29 06:32:36;;;;;;;6.22;3.47;;;22.70;65.90;;;;;;4973642;28;20379;-57
2023/06/29 06:35:04;;;;;;;9.60;3.60;;;22.70;66.00;;;;;;4974309;28;20042;-57
2023/06/29 06:37:29;;;;;;;5.57;3.40;;;22.70;66.00;;;;;;4974324;28;20137;-62
2023/06/29 06:39:55;;;;;;;7.78;3.55;;;22.70;66.10;;;;;;4972853;28;20122;-57
2023/06/29 06:42:20;;;;;;;8.93;3.63;;;22.70;66.10;;;;;;4993632;28;20057;-57
2023/06/29 06:44:54;;;;;;;9.05;4.03;;;22.80;66.20;;;;;;4993851;28;20081;-56
2023/06/29 06:47:20;;;;;;;6.30;3.33;;;22.80;66.20;;;;;;4991882;28;20120;-56
2023/06/29 06:49:46;;;;;;;7.03;3.40;;;22.80;66.30;;;;;;4992004;28;20380;-56
2023/06/29 06:52:12;;;;;;;7.80;3.50;;;22.80;66.30;;;;;;4992701;28;20042;-57
2023/06/29 06:54:37;;;;;;;6.78;3.40;;;22.80;66.30;;;;;;4992095;28;20382;-57
2023/06/29 06:57:03;;;;;;;9.90;4.00;;;22.80;66.30;;;;;;4991893;28;20088;-57
2023/06/29 06:59:29;;;;;;;9.48;3.83;;;22.80;66.40;;;;;;4993538;28;20030;-57
2023/06/29 07:01:54;;;;;;;7.03;3.72;;;22.80;66.40;;;;;;4977440;28;20169;-56
2023/06/29 07:04:20;;;;;;;7.80;3.88;;;22.80;66.30;;;;;;4973759;28;20480;-57
2023/06/29 07:06:46;;;;;;;8.50;3.95;;;22.80;66.30;;;;;;4973799;28;20118;-57
2023/06/29 07:09:12;;;;;;;8.68;3.60;;;22.80;66.30;;;;;;4973023;28;20050;-56
2023/06/29 07:11:37;;;;;;;5.95;3.80;;;22.80;66.30;;;;;;4973219;28;20188;-56
2023/06/29 07:14:04;;;;;;;9.10;3.83;;;22.80;66.30;;;;;;4973412;28;20050;-57
2023/06/29 07:16:29;;;;;;;8.73;3.95;;;22.80;66.30;;;;;;4977149;28;20097;-56
2023/06/29 07:19:06;;;;;;;7.20;3.78;;;22.80;66.30;;;;;;4992260;28;20050;-56
2023/06/29 07:21:31;;;;;;;8.23;3.80;;;22.80;66.40;;;;;;4979451;28;20043;-57
2023/06/29 07:23:57;;;;;;;9.35;4.10;;;22.80;66.50;;;;;;4991900;28;20046;-57
2023/06/29 07:26:23;;;;;;;6.70;3.60;;;22.80;66.60;;;;;;4992406;28;20150;-57
2023/06/29 07:28:49;;;;;;;7.60;3.78;;;22.90;66.60;;;;;;4991831;28;20122;-57
2023/06/29 07:31:15;;;;;;;7.55;3.97;;;22.90;66.60;;;;;;4992347;28;20062;-57
2023/06/29 07:33:43;;;;;;;9.10;3.78;;;22.90;66.70;;;;;;4992900;28;20070;-57
2023/06/29 07:36:09;;;;;;;8.57;3.90;;;22.90;66.70;;;;;;4991665;28;20049;-57
2023/06/29 07:38:34;;;;;;;9.40;4.85;;;22.90;66.80;;;;;;4984456;28;20047;-57
2023/06/29 07:41:03;;;;;;;6.07;3.70;;;22.90;66.80;;;;;;4972948;28;20057;-58
2023/06/29 07:43:28;;;;;;;7.72;3.40;;;22.90;66.90;;;;;;4972719;28;20149;-58
2023/06/29 07:45:55;;;;;;;7.65;4.18;;;22.90;66.80;;;;;;4972473;28;20117;-58
2023/06/29 07:48:21;;;;;;;10.13;4.30;;;22.90;66.80;;;;;;4983839;28;20053;-57
2023/06/29 07:50:46;;;;;;;9.75;4.00;;;22.90;66.80;;;;;;4991364;28;20030;-57
2023/06/29 07:53:12;;;;;;;8.30;4.32;;;22.90;67.00;;;;;;4989741;28;20121;-57
2023/06/29 07:55:38;;;;;;;7.78;4.40;;;23.00;66.90;;;;;;4973069;28;20039;-59
2023/06/29 07:58:03;;;;;;;9.05;4.22;;;23.00;66.90;;;;;;4972333;28;20054;-57
2023/06/29 08:00:29;;;;;;;8.45;4.25;;;23.00;66.90;;;;;;4981882;28;20038;-57
2023/06/29 08:02:54;;;;;;;9.05;4.38;;;23.00;66.80;;;;;;4992037;28;20054;-57
2023/06/29 08:05:22;;;;;;;8.30;4.30;;;23.00;66.70;;;;;;4973272;28;20043;-57
2023/06/29 08:07:49;;;;;;;8.63;4.72;;;23.00;66.70;;;;;;4972983;28;20086;-57
2023/06/29 08:10:15;;;;;;;8.15;3.92;;;23.00;66.70;;;;;;4973085;28;20042;-57
2023/06/29 08:12:41;;;;;;;10.38;4.47;;;22.90;66.60;;;;;;4972107;28;20054;-58
2023/06/29 08:15:07;;;;;;;9.93;5.00;;;23.00;67.30;;;;;;4972766;28;20039;-60
2023/06/29 08:17:32;;;;;;;8.98;4.28;;;23.00;66.70;;;;;;4976355;28;20078;-57
2023/06/29 08:19:58;;;;;;;8.45;4.32;;;23.00;66.70;;;;;;4975255;28;20039;-58
2023/06/29 08:22:23;;;;;;;7.65;4.15;;;23.00;66.70;;;;;;4978038;28;20450;-57
2023/06/29 08:24:49;;;;;;;9.07;4.22;;;23.00;66.70;;;;;;4978255;28;20051;-57
2023/06/29 08:27:14;;;;;;;8.07;4.40;;;23.00;66.60;;;;;;4976442;28;20055;-57
2023/06/29 08:29:40;;;;;;;9.57;4.57;;;23.00;66.60;;;;;;4977390;28;20038;-58
2023/06/29 08:32:07;;;;;;;12.57;6.60;;;23.00;66.60;;;;;;4976166;28;20410;-57
2023/06/29 08:34:33;;;;;;;10.90;6.38;;;23.00;66.70;;;;;;4977454;28;20043;-57
2023/06/29 08:36:59;;;;;;;15.25;6.15;;;23.00;66.60;;;;;;4976916;28;20070;-57
2023/06/29 08:39:24;;;;;;;9.68;6.05;;;23.00;66.60;;;;;;4976568;28;20454;-58
2023/06/29 08:41:50;;;;;;;10.63;5.90;;;23.00;66.60;;;;;;4976509;28;20047;-58
2023/06/29 08:44:16;;;;;;;12.13;6.57;;;23.00;66.60;;;;;;4975865;28;20085;-57
2023/06/29 08:46:42;;;;;;;11.52;6.55;;;23.00;66.60;;;;;;4975225;28;20074;-58
2023/06/29 08:49:08;;;;;;;13.00;8.15;;;23.00;66.60;;;;;;4975304;28;20072;-58
2023/06/29 08:51:34;;;;;;;16.45;9.05;;;23.00;66.60;;;;;;4975932;28;20043;-57
2023/06/29 08:54:00;;;;;;;17.10;10.00;;;23.00;66.60;;;;;;4974455;28;20474;-57
2023/06/29 08:56:26;;;;;;;18.75;9.95;;;23.00;66.60;;;;;;4959742;28;20066;-59
2023/06/29 08:58:52;;;;;;;17.20;10.52;;;23.00;66.60;;;;;;4975096;28;20137;-57
2023/06/29 09:01:18;;;;;;;18.65;11.43;;;22.90;66.50;;;;;;4975013;28;20065;-57
2023/06/29 09:03:44;;;;;;;19.52;11.40;;;23.00;66.60;;;;;;4959540;28;20047;-57
2023/06/29 09:06:09;;;;;;;17.40;11.43;;;23.00;66.60;;;;;;4959035;28;20426;-57
2023/06/29 09:08:37;;;;;;;21.33;11.35;;;23.00;66.70;;;;;;4985217;28;20050;-57
2023/06/29 09:11:03;;;;;;;19.23;12.33;;;23.00;66.80;;;;;;4994363;28;20078;-57
2023/06/29 09:13:30;;;;;;;19.20;11.40;;;23.00;66.90;;;;;;4995585;28;20414;-58
2023/06/29 09:16:00;;;;;;;18.88;10.75;;;23.00;67.10;;;;;;4994749;28;20053;-56
2023/06/29 09:18:26;;;;;;;21.83;11.25;;;23.10;67.30;;;;;;4995813;28;20413;-57
2023/06/29 09:20:55;;;;;;;19.33;10.73;;;23.10;67.30;;;;;;4995450;28;20043;-57
2023/06/29 09:23:21;;;;;;;16.02;10.25;;;23.10;67.40;;;;;;4994962;28;20076;-57
2023/06/29 09:25:48;;;;;;;16.25;10.60;;;23.10;67.40;;;;;;4994068;28;20063;-58
2023/06/29 09:28:13;;;;;;;21.63;10.35;;;23.20;67.50;;;;;;4977566;28;20097;-57
2023/06/29 09:30:40;;;;;;;17.80;10.70;;;23.20;67.50;;;;;;4995523;28;20104;-57
2023/06/29 09:33:12;;;;;;;17.48;9.68;;;23.20;67.50;;;;;;4995166;28;20057;-58
2023/06/29 09:35:40;;;;;;;17.02;9.98;;;23.20;67.50;;;;;;4994340;28;20046;-58
2023/06/29 09:38:06;;;;;;;19.00;10.57;;;23.20;67.50;;;;;;4994776;28;20062;-58
2023/06/29 09:40:41;;;;;;;14.15;9.52;;;23.20;67.40;;;;;;4995442;28;20061;-58
2023/06/29 09:43:14;;;;;;;17.25;10.05;;;23.20;67.30;;;;;;4978067;28;20056;-58
2023/06/29 09:45:40;;;;;;;16.35;10.27;;;23.30;67.40;;;;;;4994131;28;20054;-57
2023/06/29 09:48:10;;;;;;;18.35;10.38;;;23.30;67.40;;;;;;4994545;28;20126;-57
2023/06/29 09:50:36;;;;;;;18.45;10.18;;;23.30;67.40;;;;;;4994043;28;20417;-57
2023/06/29 09:53:06;;;;;;;17.30;10.13;;;23.30;67.40;;;;;;4994724;28;20097;-57
2023/06/29 09:55:32;;;;;;;18.00;9.55;;;23.30;67.40;;;;;;4993818;28;20053;-58
2023/06/29 09:57:59;;;;;;;17.05;9.50;;;23.30;67.40;;;;;;4993935;28;20046;-57
2023/06/29 10:00:27;;;;;;;17.33;9.95;;;23.30;67.40;;;;;;4976888;28;20402;-57
2023/06/29 10:02:54;;;;;;;16.52;10.05;;;23.30;67.40;;;;;;4993926;28;20061;-57
2023/06/29 10:05:20;;;;;;;15.13;10.45;;;23.30;67.40;;;;;;4994207;28;20042;-58
2023/06/29 10:07:46;;;;;;;17.27;10.45;;;23.30;67.40;;;;;;4982253;28;20053;-58
2023/06/29 10:10:14;;;;;;;13.18;9.55;;;23.30;67.30;;;;;;4975055;28;20039;-57
2023/06/29 10:12:40;;;;;;;;;;;23.30;67.40;;;;;;4973249;28;20054;-58
2023/06/29 10:15:09;;;;;;;19.17;9.70;;;23.30;67.30;;;;;;4974911;28;20497;-56
2023/06/29 10:18:02;;;;;;;19.05;10.20;;;23.30;67.40;;;;;;4973045;28;20077;-57
2023/06/29 10:20:30;;;;;;;16.15;9.55;;;23.30;67.40;;;;;;4973152;28;20039;-57
2023/06/29 10:22:56;;;;;;;;;;;23.30;67.40;;;;;;4988735;28;20041;-57
2023/06/29 10:25:21;;;;;;;17.02;10.20;;;23.30;67.30;;;;;;4993351;28;19921;-57
2023/06/29 10:27:47;;;;;;;15.43;9.73;;;23.30;67.30;;;;;;4977987;28;20031;-57
2023/06/29 10:30:18;;;;;;;17.35;9.98;;;23.30;67.40;;;;;;4973204;28;20389;-57
2023/06/29 10:32:44;;;;;;;14.57;9.88;;;23.30;67.50;;;;;;4974049;28;20062;-57
2023/06/29 10:35:11;;;;;;;18.88;11.30;;;23.30;67.50;;;;;;4973118;28;20043;-56
2023/06/29 10:37:43;;;;;;;15.60;10.48;;;23.30;67.70;;;;;;4976784;28;20057;-57
2023/06/29 10:40:16;;;;;;;15.80;9.15;;;23.30;67.80;;;;;;4972953;28;20039;-57
2023/06/29 10:42:42;;;;;;;15.88;9.98;;;23.30;67.80;;;;;;4974079;28;20059;-57
2023/06/29 10:45:16;;;;;;;16.92;10.57;;;23.30;67.70;;;;;;4973994;28;20072;-57
2023/06/29 10:47:42;;;;;;;18.90;10.23;;;23.30;67.60;;;;;;4971959;28;20043;-59
2023/06/29 10:50:11;;;;;;;15.30;10.48;;;23.30;67.60;;;;;;4973991;28;20046;-57
2023/06/29 10:52:40;;;;;;;16.40;10.20;;;23.30;67.60;;;;;;4989595;28;20050;-57
2023/06/29 10:55:15;;;;;;;17.00;10.27;;;23.20;67.50;;;;;;4993022;28;20050;-57
2023/06/29 10:57:45;;;;;;;23.63;11.98;;;23.20;67.50;;;;;;4980173;28;20057;-57
2023/06/29 11:00:11;;;;;;;36.25;16.08;;;23.20;67.50;;;;;;4973147;28;20507;-57
2023/06/29 11:02:40;;;;;;;26.70;14.80;;;23.20;67.50;;;;;;4972950;28;20054;-57
2023/06/29 11:05:06;;;;;;;25.30;14.45;;;23.20;67.30;;;;;;4978442;28;20034;-56
2023/06/29 11:07:32;;;;;;;28.00;16.50;;;23.20;67.20;;;;;;4990231;28;20046;-57
2023/06/29 11:10:01;;;;;;;25.70;15.75;;;23.10;67.20;;;;;;4991189;28;20041;-56
2023/06/29 11:12:26;;;;;;;26.88;14.82;;;23.10;67.20;;;;;;4986803;28;20490;-56
2023/06/29 11:14:52;;;;;;;25.38;14.57;;;23.10;67.20;;;;;;4990340;28;20158;-56
2023/06/29 11:17:18;;;;;;;25.48;15.27;;;23.10;67.20;;;;;;4989809;28;20038;-56
2023/06/29 11:19:48;;;;;;;25.30;14.35;;;23.10;67.10;;;;;;4992752;28;20054;-56
2023/06/29 11:22:14;;;;;;;25.02;14.77;;;23.10;67.10;;;;;;4989798;28;20482;-56
2023/06/29 11:24:41;;;;;;;21.75;14.27;;;23.10;67.20;;;;;;4992105;28;20034;-56
2023/06/29 11:27:07;;;;;;;25.60;14.63;;;23.10;67.10;;;;;;4987156;28;20046;-55
2023/06/29 11:29:32;;;;;;;22.92;14.20;;;23.10;67.20;;;;;;4990809;28;20385;-56
2023/06/29 11:32:01;;;;;;;24.42;13.85;;;23.10;67.20;;;;;;4987794;28;20125;-56
2023/06/29 11:34:26;;;;;;;22.15;14.35;;;23.10;67.20;;;;;;4990093;28;20037;-56
2023/06/29 11:36:52;;;;;;;24.00;14.23;;;23.20;67.20;;;;;;4988253;28;20129;-57
2023/06/29 11:39:18;;;;;;;21.70;13.10;;;23.20;67.20;;;;;;4990009;28;20053;-56
2023/06/29 11:41:45;;;;;;;22.05;13.90;;;23.20;67.80;;;;;;4982337;28;20031;-56
2023/06/29 11:44:11;;;;;;;21.55;12.80;;;23.20;67.20;;;;;;4973977;28;20046;-56
2023/06/29 11:46:36;;;;;;;22.75;13.73;;;23.20;67.20;;;;;;4976879;28;20039;-56
2023/06/29 11:49:04;;;;;;;19.98;13.27;;;23.20;67.10;;;;;;4973957;28;20050;-56
2023/06/29 11:51:30;;;;;;;20.40;13.03;;;23.20;67.20;;;;;;4983620;28;20061;-57
2023/06/29 11:53:56;;;;;;;20.50;13.18;;;23.20;67.10;;;;;;4990500;28;20305;-57
2023/06/29 11:56:34;;;;;;;21.52;13.30;;;23.20;67.10;;;;;;4989988;28;20430;-55
2023/06/29 11:59:13;;;;;;;20.83;13.00;;;23.20;67.10;;;;;;4990462;28;20467;-55
2023/06/29 12:01:39;;;;;;;19.00;13.05;;;23.30;67.20;;;;;;4988824;28;20046;-56
2023/06/29 12:04:05;;;;;;;21.20;12.40;;;23.30;67.10;;;;;;4989955;28;20050;-55
2023/06/29 12:06:32;;;;;;;19.58;12.10;;;23.30;67.00;;;;;;4991719;28;20057;-55
2023/06/29 12:08:58;;;;;;;20.02;13.02;;;23.30;67.00;;;;;;4988702;28;20496;-55
2023/06/29 12:11:25;;;;;;;19.00;12.60;;;23.30;67.00;;;;;;4989497;28;20039;-56
2023/06/29 12:13:51;;;;;;;20.60;12.32;;;23.30;67.00;;;;;;4988429;28;20042;-56
2023/06/29 12:16:17;;;;;;;19.25;12.35;;;23.30;66.90;;;;;;4992205;28;20141;-56
2023/06/29 12:18:43;;;;;;;19.80;12.82;;;23.30;66.90;;;;;;4988390;28;20048;-57
2023/06/29 12:21:09;;;;;;;19.30;12.98;;;23.30;66.90;;;;;;4992144;28;20129;-56
2023/06/29 12:23:34;;;;;;;17.85;11.63;;;23.40;66.90;;;;;;4976552;28;20046;-57
2023/06/29 12:26:00;;;;;;;20.27;12.07;;;23.40;66.80;;;;;;4971636;28;20101;-57
2023/06/29 12:28:25;;;;;;;22.85;12.73;;;23.40;66.80;;;;;;4972789;28;20042;-57
2023/06/29 12:30:51;;;;;;;19.30;12.73;;;23.40;66.70;;;;;;4972297;28;20046;-57
2023/06/29 12:33:17;;;;;;;20.50;12.13;;;23.40;66.70;;;;;;4971732;28;20053;-57
2023/06/29 12:35:43;;;;;;;17.85;11.55;;;23.40;66.60;;;;;;4972540;28;20193;-57
2023/06/29 12:38:08;;;;;;;18.10;11.73;;;23.40;66.60;;;;;;4971570;28;20062;-57